KTRL/TRL METAR and TAF weather

Enter ICAO airport designator
Station Type Date Time Source
KTRL METAR 2019/02/21 15:03 UTC NOAA

KTRL 211503Z AUTO 03007KT 10SM OVC080 08/03 A3006 RMK AO2 LTG DSNT W-N T00830033


Station Type Date Time Source
KTRL Decoded METAR 2019/02/21 15:03 UTC NOAA

TERRELL MUNICIPAL AIRPORT, TX, United States (KTRL) 32-43N 96-16W 144M
Feb 21, 2019 - 10:03 AM EST / 2019.02.21 1503 UTC
Wind: from the NNE (030 degrees) at 8 MPH (7 KT):0
Visibility: 10 mile(s):0
Sky conditions: overcast
Weather: Lightning observed
Temperature: 46.9 F (8.3 C)
Dew Point: 37.9 F (3.3 C)
Relative Humidity: 70%
Pressure (altimeter): 30.06 in. Hg (1017 hPa)
ob: KTRL 211503Z AUTO 03007KT 10SM OVC080 08/03 A3006 RMK AO2 LTG DSNT W-N T00830033
cycle: 15

Station Type Date Time Source
KTRL TAF UTC NOAA

Error!


Example: see airport list